createdAt,value
2019-04-23T00:01:23.539Z,2.30
2019-04-23T00:03:49.967Z,2.40
2019-04-23T00:08:58.093Z,2.30
2019-04-23T00:11:31.296Z,2.00
2019-04-23T00:14:02.795Z,2.33
2019-04-23T00:16:30.215Z,2.30
2019-04-23T00:19:08.307Z,2.40
2019-04-23T00:22:02.186Z,2.27
2019-04-23T00:29:53.412Z,2.27
2019-04-23T00:32:23.437Z,2.37
2019-04-23T00:34:54.643Z,2.10
2019-04-23T00:39:52.324Z,2.20
2019-04-23T00:42:41.674Z,2.53
2019-04-23T00:44:56.287Z,2.20
2019-04-23T00:47:32.927Z,2.10
2019-04-23T00:50:06.431Z,2.60
2019-04-23T00:52:32.140Z,2.20
2019-04-23T00:57:35.872Z,2.50
2019-04-23T01:02:49.215Z,2.60
2019-04-23T01:05:18.396Z,2.40
2019-04-23T01:13:03.128Z,2.27
2019-04-23T01:15:32.871Z,2.50
2019-04-23T01:18:08.845Z,2.53
2019-04-23T01:20:36.833Z,2.37
2019-04-23T01:22:48.851Z,2.23
2019-04-23T01:25:36.467Z,2.50
2019-04-23T01:28:26.585Z,2.23
2019-04-23T01:33:39.396Z,2.70
2019-04-23T01:38:38.938Z,2.50
2019-04-23T01:41:13.273Z,2.23
2019-04-23T01:43:42.819Z,2.57
2019-04-23T01:46:16.402Z,2.33
2019-04-23T01:48:47.128Z,2.83
2019-04-23T01:51:20.119Z,2.70
2019-04-23T01:56:24.624Z,2.40
2019-04-23T01:58:53.467Z,2.50
2019-04-23T02:01:25.818Z,2.90
2019-04-23T02:04:03.524Z,3.00
2019-04-23T02:06:25.876Z,2.60
2019-04-23T02:09:00.443Z,2.50
2019-04-23T02:11:37.733Z,2.80
2019-04-23T02:14:05.368Z,2.60
2019-04-23T02:16:40.348Z,2.33
2019-04-23T02:19:11.347Z,2.67
2019-04-23T02:21:39.848Z,2.60
2019-04-23T02:24:12.456Z,2.67
2019-04-23T02:29:23.617Z,2.40
2019-04-23T02:34:36.018Z,2.53
2019-04-23T02:36:57.796Z,2.90
2019-04-23T02:39:32.824Z,2.50
2019-04-23T02:42:04.847Z,2.63
2019-04-23T02:44:24.195Z,2.70
2019-04-23T02:52:11.197Z,2.70
2019-04-23T02:54:48.340Z,2.70
2019-04-23T02:57:09.383Z,2.90
2019-04-23T03:05:08.265Z,3.07
2019-04-23T03:10:00.535Z,2.57
2019-04-23T03:12:37.786Z,3.00
2019-04-23T03:15:21.842Z,3.13
2019-04-23T03:21:10.182Z,2.70
2019-04-23T03:23:34.895Z,2.67
2019-04-23T03:26:08.941Z,2.97
2019-04-23T03:36:17.237Z,2.77
2019-04-23T03:41:25.797Z,2.90
2019-04-23T03:46:29.520Z,3.17
2019-04-23T03:51:38.240Z,3.40
2019-04-23T03:54:21.299Z,3.20
2019-04-23T03:56:44.565Z,3.27
2019-04-23T03:59:12.264Z,3.17
2019-04-23T04:01:46.386Z,3.47
2019-04-23T04:09:43.330Z,3.40
2019-04-23T04:11:54.978Z,3.27
2019-04-23T04:19:41.792Z,3.67
2019-04-23T04:24:41.727Z,3.57
2019-04-23T04:29:54.895Z,3.70
2019-04-23T04:32:09.868Z,2.90
2019-04-23T04:37:40.526Z,3.23
2019-04-23T04:42:25.328Z,4.40
2019-04-23T04:45:07.458Z,3.40
2019-04-23T04:47:36.290Z,3.50
2019-04-23T04:52:42.003Z,3.73
2019-04-23T04:55:05.368Z,4.17
2019-04-23T04:57:39.933Z,4.90
2019-04-23T05:00:13.345Z,4.03
2019-04-23T05:03:03.666Z,3.63
2019-04-23T05:05:47.751Z,3.83
2019-04-23T05:10:29.909Z,4.37
2019-04-23T05:12:59.855Z,4.00
2019-04-23T05:15:25.527Z,4.57
2019-04-23T05:18:19.593Z,4.50
2019-04-23T05:20:48.298Z,4.17
2019-04-23T05:26:08.483Z,4.40
2019-04-23T05:28:23.076Z,4.23
2019-04-23T05:33:33.703Z,4.60
2019-04-23T05:36:13.086Z,3.83
2019-04-23T05:38:43.302Z,4.40
2019-04-23T05:41:10.118Z,3.90
2019-04-23T05:43:40.945Z,4.17
2019-04-23T05:46:14.251Z,4.50
2019-04-23T05:48:37.379Z,4.10
2019-04-23T05:51:23.194Z,4.33
2019-04-23T05:53:51.273Z,4.50
2019-04-23T05:56:21.323Z,4.70
2019-04-23T05:58:58.123Z,4.43
2019-04-23T06:01:54.212Z,4.77
2019-04-23T06:04:26.049Z,4.40
2019-04-23T06:14:39.169Z,4.17
2019-04-23T06:17:10.626Z,4.70
2019-04-23T06:19:42.535Z,4.53
2019-04-23T06:24:45.203Z,4.60
2019-04-23T06:27:26.009Z,4.60
2019-04-23T06:32:25.968Z,4.27
2019-04-23T06:34:56.685Z,4.43
2019-04-23T06:37:49.599Z,4.37
2019-04-23T06:40:12.218Z,4.50
2019-04-23T06:42:52.142Z,4.80
2019-04-23T06:45:30.784Z,5.23
2019-04-23T06:48:02.218Z,5.20
2019-04-23T06:50:37.041Z,4.70
2019-04-23T06:53:00.565Z,5.40
2019-04-23T06:55:44.645Z,4.97
2019-04-23T06:58:18.744Z,5.30
2019-04-23T07:00:51.262Z,5.13
2019-04-23T07:03:31.494Z,5.20
2019-04-23T07:11:23.549Z,5.70
2019-04-23T07:13:54.757Z,5.60
2019-04-23T07:16:17.902Z,5.77
2019-04-23T07:19:12.489Z,5.30
2019-04-23T07:21:22.428Z,5.40
2019-04-23T07:26:36.057Z,4.97
2019-04-23T07:31:41.042Z,5.53
2019-04-23T07:34:26.471Z,5.17
2019-04-23T07:36:52.052Z,5.47
2019-04-23T07:39:29.429Z,5.40
2019-04-23T07:42:24.829Z,5.50
2019-04-23T07:45:03.622Z,5.37
2019-04-23T07:50:47.689Z,5.60
2019-04-23T07:55:56.841Z,5.20
2019-04-23T07:58:30.373Z,6.27
2019-04-23T08:01:01.922Z,5.27
2019-04-23T08:03:51.179Z,5.10
2019-04-23T08:06:01.012Z,6.20
2019-04-23T08:08:39.300Z,5.93
2019-04-23T08:11:30.442Z,5.33
2019-04-23T08:13:47.329Z,5.70
2019-04-23T08:21:30.675Z,5.40
2019-04-23T08:24:27.522Z,6.00
2019-04-23T08:27:02.717Z,5.77
2019-04-23T08:29:36.361Z,6.40
2019-04-23T08:32:13.979Z,6.23
2019-04-23T08:39:47.042Z,5.73
2019-04-23T08:42:46.235Z,5.77
2019-04-23T08:48:04.114Z,5.73
2019-04-23T08:50:32.616Z,5.37
2019-04-23T08:53:21.475Z,5.83
2019-04-23T08:55:46.431Z,5.47
2019-04-23T08:58:14.413Z,6.00
2019-04-23T09:05:53.114Z,5.87
2019-04-23T09:08:19.281Z,5.70
2019-04-23T09:16:02.031Z,5.97
2019-04-23T09:18:32.766Z,5.60
2019-04-23T09:21:07.428Z,5.53
2019-04-23T09:26:27.629Z,5.87
2019-04-23T09:32:07.576Z,6.17
2019-04-23T09:34:55.520Z,5.50
2019-04-23T09:40:31.888Z,5.70
2019-04-23T09:45:51.534Z,6.03
2019-04-23T09:48:18.265Z,5.80
2019-04-23T09:50:57.146Z,5.43
2019-04-23T09:53:27.826Z,5.33
2019-04-23T09:55:53.097Z,5.87
2019-04-23T09:58:28.833Z,5.87
2019-04-23T10:01:26.010Z,5.63
2019-04-23T10:03:45.099Z,5.77
2019-04-23T10:06:10.355Z,5.90
2019-04-23T10:08:43.002Z,5.53
2019-04-23T10:11:11.880Z,5.95
2019-04-23T10:13:45.363Z,6.25
2019-04-23T10:16:21.366Z,6.15
2019-04-23T10:18:53.288Z,6.15
2019-04-23T10:21:23.812Z,5.65
2019-04-23T10:23:55.070Z,6.10
2019-04-23T10:26:28.094Z,6.37
2019-04-23T10:29:05.542Z,6.03
2019-04-23T10:31:39.875Z,5.85
2019-04-23T10:34:42.982Z,7.22
2019-04-23T10:37:05.182Z,6.33
2019-04-23T10:39:39.075Z,5.50
2019-04-23T10:42:09.857Z,6.13
2019-04-23T10:45:14.754Z,5.87
2019-04-23T10:48:40.254Z,5.73
2019-04-23T10:51:18.631Z,5.77
2019-04-23T10:53:56.952Z,6.43
2019-04-23T10:56:40.101Z,6.20
2019-04-23T10:59:04.991Z,6.03
2019-04-23T11:04:34.212Z,6.77
2019-04-23T11:06:47.436Z,5.17
2019-04-23T11:09:38.083Z,6.50
2019-04-23T11:12:02.099Z,6.27
2019-04-23T11:14:33.851Z,6.05
2019-04-23T11:19:43.743Z,5.97
2019-04-23T11:22:20.735Z,5.75
2019-04-23T11:27:09.999Z,6.85
2019-04-23T11:29:39.036Z,6.67
2019-04-23T11:32:19.931Z,6.83
2019-04-23T11:37:12.898Z,6.40
2019-04-23T11:42:29.685Z,5.80
2019-04-23T11:47:32.749Z,6.80
2019-04-23T11:49:53.578Z,6.53
2019-04-23T11:52:45.070Z,6.00
2019-04-23T11:54:53.902Z,6.20
2019-04-23T12:02:54.248Z,6.17
2019-04-23T12:08:17.262Z,6.37
2019-04-23T12:11:41.666Z,6.00
2019-04-23T12:14:09.599Z,6.43
2019-04-23T12:16:43.521Z,6.37
2019-04-23T12:19:35.113Z,7.00
2019-04-23T12:21:43.728Z,6.65
2019-04-23T12:24:28.750Z,6.20
2019-04-23T12:26:49.264Z,6.53
2019-04-23T12:29:31.928Z,6.50
2019-04-23T12:32:24.833Z,6.35
2019-04-23T12:34:55.679Z,5.97
2019-04-23T12:37:26.690Z,6.40
2019-04-23T12:39:49.552Z,6.65
2019-04-23T12:42:43.654Z,6.40
2019-04-23T12:45:05.156Z,6.55
2019-04-23T12:47:44.916Z,6.28
2019-04-23T12:50:29.708Z,6.60
2019-04-23T12:52:40.669Z,6.58
2019-04-23T12:55:13.526Z,6.37
2019-04-23T12:57:46.787Z,6.75
2019-04-23T13:00:23.215Z,7.15
2019-04-23T13:03:06.138Z,6.22
2019-04-23T13:05:27.102Z,6.15
2019-04-23T13:08:00.529Z,6.15
2019-04-23T13:10:45.472Z,6.12
2019-04-23T13:15:34.301Z,6.00
2019-04-23T13:18:09.448Z,5.78
2019-04-23T13:20:36.598Z,6.50
2019-04-23T13:23:34.608Z,6.33
2019-04-23T13:28:35.171Z,6.03
2019-04-23T13:31:08.558Z,5.33
2019-04-23T13:38:41.747Z,6.40
2019-04-23T13:43:43.740Z,5.87
2019-04-23T13:46:24.418Z,5.87
2019-04-23T13:48:47.992Z,6.05
2019-04-23T13:51:26.254Z,5.87
2019-04-23T13:53:57.352Z,5.53
2019-04-23T13:59:31.398Z,5.85
2019-04-23T14:01:54.745Z,5.85
2019-04-23T14:04:38.990Z,5.97
2019-04-23T14:06:55.477Z,5.45
2019-04-23T14:09:37.945Z,5.58
2019-04-23T14:11:58.171Z,6.25
2019-04-23T14:19:45.650Z,6.33
2019-04-23T14:22:43.432Z,5.90
2019-04-23T14:25:04.789Z,5.55
2019-04-23T14:27:26.789Z,6.37
2019-04-23T14:30:17.846Z,5.40
2019-04-23T14:35:16.632Z,5.13
2019-04-23T14:37:58.117Z,6.22
2019-04-23T14:40:22.293Z,5.70
2019-04-23T14:43:00.086Z,5.58
2019-04-23T14:45:46.799Z,5.60
2019-04-23T14:48:17.710Z,6.33
2019-04-23T14:50:40.860Z,5.20
2019-04-23T14:53:18.263Z,5.75
2019-04-23T14:58:31.454Z,5.97
2019-04-23T15:01:16.122Z,5.90
2019-04-23T15:03:42.563Z,5.70
2019-04-23T15:06:27.797Z,5.58
2019-04-23T15:08:50.231Z,6.08
2019-04-23T15:11:26.410Z,6.00
2019-04-23T15:13:52.251Z,6.25
2019-04-23T15:16:35.056Z,5.58
2019-04-23T15:19:29.246Z,6.42
2019-04-23T15:24:27.749Z,6.08
2019-04-23T15:29:24.836Z,6.30
2019-04-23T15:32:07.757Z,6.75
2019-04-23T15:34:45.462Z,5.90
2019-04-23T15:37:32.314Z,6.08
2019-04-23T15:39:55.071Z,6.10
2019-04-23T15:42:25.476Z,6.12
2019-04-23T15:44:55.694Z,6.60
2019-04-23T15:50:10.792Z,6.00
2019-04-23T15:57:53.606Z,6.17
2019-04-23T16:00:24.982Z,5.22
2019-04-23T16:02:15.491Z,6.10
2019-04-23T16:04:45.212Z,5.67
2019-04-23T16:07:31.401Z,6.03
2019-04-23T16:10:17.730Z,5.65
2019-04-23T16:12:54.829Z,6.05
2019-04-23T16:15:13.336Z,6.12
2019-04-23T16:18:07.916Z,6.17
2019-04-23T16:20:37.936Z,6.37
2019-04-23T16:22:57.876Z,5.37
2019-04-23T16:25:40.456Z,6.30
2019-04-23T16:28:09.421Z,6.33
2019-04-23T16:30:46.483Z,6.00
2019-04-23T16:33:11.273Z,5.92
2019-04-23T16:35:51.809Z,6.40
2019-04-23T16:38:34.182Z,5.97
2019-04-23T16:40:57.280Z,5.92
2019-04-23T16:43:53.397Z,5.70
2019-04-23T16:46:09.766Z,6.05
2019-04-23T16:51:22.716Z,6.23
2019-04-23T16:53:42.992Z,6.87
2019-04-23T16:59:00.070Z,6.50
2019-04-23T17:01:19.847Z,6.10
2019-04-23T17:03:59.395Z,5.80
2019-04-23T17:06:27.135Z,5.80
2019-04-23T17:08:58.034Z,5.97
2019-04-23T17:11:34.023Z,7.33
2019-04-23T17:14:09.529Z,6.47
2019-04-23T17:16:33.979Z,6.37
2019-04-23T17:19:10.360Z,6.53
2019-04-23T17:21:38.340Z,5.90
2019-04-23T17:24:15.465Z,5.53
2019-04-23T17:26:36.035Z,6.33
2019-04-23T17:29:18.205Z,6.50
2019-04-23T17:31:44.558Z,6.40
2019-04-23T17:34:27.282Z,6.67
2019-04-23T17:37:17.711Z,6.33
2019-04-23T17:40:15.433Z,6.67
2019-04-23T17:43:14.735Z,5.93
2019-04-23T17:45:44.931Z,6.00
2019-04-23T17:48:15.744Z,6.27
2019-04-23T17:50:58.092Z,5.90
2019-04-23T17:53:25.457Z,5.90
2019-04-23T17:56:08.777Z,6.40
2019-04-23T17:58:28.886Z,5.63
2019-04-23T18:01:20.129Z,6.10
2019-04-23T18:03:55.910Z,6.67
2019-04-23T18:06:23.470Z,5.60
2019-04-23T18:08:41.534Z,5.37
2019-04-23T18:11:21.559Z,5.87
2019-04-23T18:13:50.558Z,5.90
2019-04-23T18:16:37.881Z,6.03
2019-04-23T18:21:47.660Z,6.27
2019-04-23T18:24:41.542Z,6.43
2019-04-23T18:27:15.492Z,5.97
2019-04-23T18:30:15.629Z,5.80
2019-04-23T18:38:13.458Z,5.30
2019-04-23T18:41:00.842Z,5.40
2019-04-23T18:43:24.042Z,6.10
2019-04-23T18:45:53.181Z,6.07
2019-04-23T18:53:48.183Z,5.73
2019-04-23T19:04:11.273Z,5.60
2019-04-23T19:06:41.130Z,6.00
2019-04-23T19:13:11.069Z,5.80
2019-04-23T19:15:38.107Z,5.97
2019-04-23T19:18:12.660Z,5.90
2019-04-23T19:25:46.771Z,5.27
2019-04-23T19:28:34.555Z,5.40
2019-04-23T19:31:39.672Z,5.57
2019-04-23T19:34:33.817Z,5.67
2019-04-23T19:36:49.196Z,5.87
2019-04-23T19:39:17.620Z,5.93
2019-04-23T19:44:20.093Z,5.20
2019-04-23T19:54:39.199Z,5.77
2019-04-23T19:56:58.186Z,5.60
2019-04-23T19:59:33.071Z,5.00
2019-04-23T20:02:00.198Z,5.97
2019-04-23T20:07:22.753Z,5.67
2019-04-23T20:09:49.747Z,5.67
2019-04-23T20:12:13.291Z,5.90
2019-04-23T20:14:50.487Z,6.07
2019-04-23T20:20:02.877Z,5.70
2019-04-23T20:22:33.928Z,5.90
2019-04-23T20:25:18.856Z,5.87
2019-04-23T20:27:26.730Z,5.73
2019-04-23T20:35:33.472Z,5.80
2019-04-23T20:38:27.633Z,6.37
2019-04-23T20:40:49.066Z,5.80
2019-04-23T20:43:06.933Z,5.83
2019-04-23T20:45:48.130Z,6.17
2019-04-23T20:48:14.221Z,6.30
2019-04-23T20:50:42.499Z,6.53
2019-04-23T20:53:13.463Z,6.43
2019-04-23T20:58:48.186Z,5.73
2019-04-23T21:01:37.208Z,6.47
2019-04-23T21:04:12.457Z,6.17
2019-04-23T21:06:48.749Z,6.27
2019-04-23T21:11:48.283Z,6.17
2019-04-23T21:14:26.757Z,5.10
2019-04-23T21:16:48.408Z,6.63
2019-04-23T21:19:24.189Z,6.40
2019-04-23T21:22:14.122Z,6.20
2019-04-23T21:24:42.883Z,6.27
2019-04-23T21:27:20.436Z,6.43
2019-04-23T21:29:53.609Z,6.30
2019-04-23T21:32:24.889Z,6.83
2019-04-23T21:35:03.928Z,6.40
2019-04-23T21:38:06.005Z,6.83
2019-04-23T21:41:00.163Z,6.13
2019-04-23T21:43:58.903Z,6.07
2019-04-23T21:46:15.348Z,6.20
2019-04-23T21:48:55.854Z,6.70
2019-04-23T21:51:24.477Z,5.83
2019-04-23T21:53:46.309Z,6.17
2019-04-23T21:56:16.752Z,6.37
2019-04-23T21:58:57.621Z,6.97
2019-04-23T22:04:08.899Z,6.00
2019-04-23T22:11:48.297Z,6.83
2019-04-23T22:14:09.985Z,6.47
2019-04-23T22:16:50.472Z,6.93
2019-04-23T22:19:17.034Z,7.00
2019-04-23T22:24:21.536Z,6.97
2019-04-23T22:26:38.190Z,6.60
2019-04-23T22:31:50.679Z,6.80
2019-04-23T22:34:44.842Z,6.47
2019-04-23T22:37:01.450Z,7.20
2019-04-23T22:39:16.309Z,6.20
2019-04-23T22:41:59.793Z,6.30
2019-04-23T22:44:50.935Z,6.20
2019-04-23T22:54:31.882Z,6.50
2019-04-23T22:57:01.245Z,6.47
2019-04-23T22:59:51.433Z,6.87
2019-04-23T23:02:44.382Z,6.10
2019-04-23T23:05:12.203Z,7.13
2019-04-23T23:07:48.883Z,6.73
2019-04-23T23:10:12.979Z,6.20
2019-04-23T23:13:00.032Z,6.63
2019-04-23T23:15:19.134Z,6.80
2019-04-23T23:20:20.886Z,6.80
2019-04-23T23:22:57.337Z,6.73
2019-04-23T23:27:57.408Z,6.63
2019-04-23T23:30:33.853Z,7.00
2019-04-23T23:32:56.776Z,6.50
2019-04-23T23:38:02.562Z,6.50
2019-04-23T23:40:47.200Z,7.07
2019-04-23T23:43:10.133Z,6.40
2019-04-23T23:48:06.556Z,6.50
2019-04-23T23:50:50.291Z,6.80
2019-04-23T23:53:24.925Z,7.13
2019-04-23T23:55:50.862Z,6.60
